sensor_id;sensor_type;location;lat;lon;timestamp;P1;durP1;ratioP1;P2;durP2;ratioP2
39502;SDS011;26970;49.900;10.774;2022-09-12T00:01:09;140.00;;;11.90;;
39502;SDS011;26970;49.900;10.774;2022-09-12T00:03:37;51.63;;;8.27;;
39502;SDS011;26970;49.900;10.774;2022-09-12T00:06:22;111.35;;;8.23;;
39502;SDS011;26970;49.900;10.774;2022-09-12T00:08:50;174.63;;;10.10;;
39502;SDS011;26970;49.900;10.774;2022-09-12T00:11:19;16.52;;;9.50;;
39502;SDS011;26970;49.900;10.774;2022-09-12T00:13:51;30.27;;;8.05;;
39502;SDS011;26970;49.900;10.774;2022-09-12T00:16:22;14.18;;;8.77;;
39502;SDS011;26970;49.900;10.774;2022-09-12T00:21:50;12.80;;;8.80;;
39502;SDS011;26970;49.900;10.774;2022-09-12T00:24:16;40.30;;;9.18;;
39502;SDS011;26970;49.900;10.774;2022-09-12T00:26:41;51.63;;;9.00;;
39502;SDS011;26970;49.900;10.774;2022-09-12T00:29:07;125.15;;;9.90;;
39502;SDS011;26970;49.900;10.774;2022-09-12T00:31:38;166.88;;;13.52;;
39502;SDS011;26970;49.900;10.774;2022-09-12T00:34:04;150.95;;;13.43;;
39502;SDS011;26970;49.900;10.774;2022-09-12T00:36:30;94.88;;;11.55;;
39502;SDS011;26970;49.900;10.774;2022-09-12T00:38:55;121.95;;;11.68;;
39502;SDS011;26970;49.900;10.774;2022-09-12T00:43:48;92.47;;;11.90;;
39502;SDS011;26970;49.900;10.774;2022-09-12T00:49:33;49.72;;;9.45;;
39502;SDS011;26970;49.900;10.774;2022-09-12T00:51:44;96.68;;;10.13;;
39502;SDS011;26970;49.900;10.774;2022-09-12T00:54:29;74.47;;;8.25;;
39502;SDS011;26970;49.900;10.774;2022-09-12T00:57:01;63.30;;;8.98;;
39502;SDS011;26970;49.900;10.774;2022-09-12T00:59:32;61.50;;;8.15;;
39502;SDS011;26970;49.900;10.774;2022-09-12T01:04:28;103.10;;;10.88;;
39502;SDS011;26970;49.900;10.774;2022-09-12T01:06:55;129.73;;;11.25;;
39502;SDS011;26970;49.900;10.774;2022-09-12T01:09:22;179.60;;;14.95;;
39502;SDS011;26970;49.900;10.774;2022-09-12T01:11:49;27.52;;;9.45;;
39502;SDS011;26970;49.900;10.774;2022-09-12T01:14:17;64.68;;;11.23;;
39502;SDS011;26970;49.900;10.774;2022-09-12T01:16:44;71.18;;;11.40;;
39502;SDS011;26970;49.900;10.774;2022-09-12T01:30:41;71.88;;;10.70;;
39502;SDS011;26970;49.900;10.774;2022-09-12T01:33:20;37.25;;;9.63;;
39502;SDS011;26970;49.900;10.774;2022-09-12T01:39:19;29.23;;;8.07;;
39502;SDS011;26970;49.900;10.774;2022-09-12T01:41:54;104.35;;;10.02;;
39502;SDS011;26970;49.900;10.774;2022-09-12T01:44:45;48.60;;;8.85;;
39502;SDS011;26970;49.900;10.774;2022-09-12T01:49:51;30.67;;;8.60;;
39502;SDS011;26970;49.900;10.774;2022-09-12T01:58:08;29.30;;;8.30;;
39502;SDS011;26970;49.900;10.774;2022-09-12T02:00:41;43.95;;;9.13;;
39502;SDS011;26970;49.900;10.774;2022-09-12T02:03:14;92.80;;;8.77;;
39502;SDS011;26970;49.900;10.774;2022-09-12T02:05:52;163.13;;;12.43;;
39502;SDS011;26970;49.900;10.774;2022-09-12T02:08:26;155.07;;;12.32;;
39502;SDS011;26970;49.900;10.774;2022-09-12T02:11:00;76.47;;;8.98;;
39502;SDS011;26970;49.900;10.774;2022-09-12T02:13:35;86.20;;;11.55;;
39502;SDS011;26970;49.900;10.774;2022-09-12T02:16:10;101.60;;;9.93;;
39502;SDS011;26970;49.900;10.774;2022-09-12T02:18:43;81.85;;;9.70;;
39502;SDS011;26970;49.900;10.774;2022-09-12T02:21:13;66.30;;;9.25;;
39502;SDS011;26970;49.900;10.774;2022-09-12T02:23:40;150.73;;;9.48;;
39502;SDS011;26970;49.900;10.774;2022-09-12T02:26:18;70.90;;;8.02;;
39502;SDS011;26970;49.900;10.774;2022-09-12T02:28:50;80.32;;;9.07;;
39502;SDS011;26970;49.900;10.774;2022-09-12T02:33:49;57.50;;;9.02;;
39502;SDS011;26970;49.900;10.774;2022-09-12T02:36:41;74.22;;;11.63;;
39502;SDS011;26970;49.900;10.774;2022-09-12T02:39:21;134.05;;;9.10;;
39502;SDS011;26970;49.900;10.774;2022-09-12T02:41:49;130.30;;;9.98;;
39502;SDS011;26970;49.900;10.774;2022-09-12T02:44:15;135.57;;;9.90;;
39502;SDS011;26970;49.900;10.774;2022-09-12T02:46:46;178.35;;;11.30;;
39502;SDS011;26970;49.900;10.774;2022-09-12T02:49:14;36.58;;;9.00;;
39502;SDS011;26970;49.900;10.774;2022-09-12T02:51:41;63.97;;;10.80;;
39502;SDS011;26970;49.900;10.774;2022-09-12T02:54:07;55.55;;;9.77;;
39502;SDS011;26970;49.900;10.774;2022-09-12T02:56:34;62.20;;;8.82;;
39502;SDS011;26970;49.900;10.774;2022-09-12T02:59:00;78.10;;;10.10;;
39502;SDS011;26970;49.900;10.774;2022-09-12T03:12:46;37.42;;;9.70;;
39502;SDS011;26970;49.900;10.774;2022-09-12T03:15:27;29.58;;;10.60;;
39502;SDS011;26970;49.900;10.774;2022-09-12T03:20:56;61.78;;;9.68;;
39502;SDS011;26970;49.900;10.774;2022-09-12T03:23:45;101.25;;;10.60;;
39502;SDS011;26970;49.900;10.774;2022-09-12T03:26:41;93.82;;;9.82;;
39502;SDS011;26970;49.900;10.774;2022-09-12T03:29:12;155.57;;;11.10;;
39502;SDS011;26970;49.900;10.774;2022-09-12T03:31:46;77.05;;;9.20;;
39502;SDS011;26970;49.900;10.774;2022-09-12T03:34:17;119.43;;;11.00;;
39502;SDS011;26970;49.900;10.774;2022-09-12T03:36:43;91.32;;;10.25;;
39502;SDS011;26970;49.900;10.774;2022-09-12T03:39:09;83.93;;;10.75;;
39502;SDS011;26970;49.900;10.774;2022-09-12T03:41:34;124.15;;;11.55;;
39502;SDS011;26970;49.900;10.774;2022-09-12T03:44:00;87.00;;;10.52;;
39502;SDS011;26970;49.900;10.774;2022-09-12T03:46:26;115.07;;;11.27;;
39502;SDS011;26970;49.900;10.774;2022-09-12T03:48:51;79.18;;;10.77;;
39502;SDS011;26970;49.900;10.774;2022-09-12T03:51:17;146.48;;;11.30;;
39502;SDS011;26970;49.900;10.774;2022-09-12T03:53:42;122.50;;;11.35;;
39502;SDS011;26970;49.900;10.774;2022-09-12T03:56:08;245.25;;;13.05;;
39502;SDS011;26970;49.900;10.774;2022-09-12T03:58:35;201.88;;;13.48;;
39502;SDS011;26970;49.900;10.774;2022-09-12T04:01:11;134.57;;;11.02;;
39502;SDS011;26970;49.900;10.774;2022-09-12T04:03:39;102.45;;;10.45;;
39502;SDS011;26970;49.900;10.774;2022-09-12T04:06:06;32.97;;;8.95;;
39502;SDS011;26970;49.900;10.774;2022-09-12T04:08:33;50.92;;;9.43;;
39502;SDS011;26970;49.900;10.774;2022-09-12T04:11:03;113.07;;;11.70;;
39502;SDS011;26970;49.900;10.774;2022-09-12T04:13:29;167.02;;;12.35;;
39502;SDS011;26970;49.900;10.774;2022-09-12T04:15:58;152.60;;;10.63;;
39502;SDS011;26970;49.900;10.774;2022-09-12T04:18:24;118.32;;;9.90;;
39502;SDS011;26970;49.900;10.774;2022-09-12T04:20:51;135.82;;;11.68;;
39502;SDS011;26970;49.900;10.774;2022-09-12T04:23:17;187.88;;;12.05;;
39502;SDS011;26970;49.900;10.774;2022-09-12T04:25:43;123.43;;;10.70;;
39502;SDS011;26970;49.900;10.774;2022-09-12T04:28:09;256.60;;;12.85;;
39502;SDS011;26970;49.900;10.774;2022-09-12T04:30:34;189.63;;;10.70;;
39502;SDS011;26970;49.900;10.774;2022-09-12T04:33:00;168.88;;;10.55;;
39502;SDS011;26970;49.900;10.774;2022-09-12T04:35:25;263.75;;;13.48;;
39502;SDS011;26970;49.900;10.774;2022-09-12T04:37:51;285.85;;;13.63;;
39502;SDS011;26970;49.900;10.774;2022-09-12T04:40:17;380.33;;;16.17;;
39502;SDS011;26970;49.900;10.774;2022-09-12T04:42:43;415.05;;;18.58;;
39502;SDS011;26970;49.900;10.774;2022-09-12T04:45:09;186.40;;;12.25;;
39502;SDS011;26970;49.900;10.774;2022-09-12T04:47:35;138.23;;;12.02;;
39502;SDS011;26970;49.900;10.774;2022-09-12T04:50:00;195.98;;;13.82;;
39502;SDS011;26970;49.900;10.774;2022-09-12T04:52:26;189.45;;;12.10;;
39502;SDS011;26970;49.900;10.774;2022-09-12T04:54:52;162.75;;;12.93;;
39502;SDS011;26970;49.900;10.774;2022-09-12T04:57:17;270.73;;;14.70;;
39502;SDS011;26970;49.900;10.774;2022-09-12T04:59:43;187.35;;;13.00;;
39502;SDS011;26970;49.900;10.774;2022-09-12T05:02:08;159.98;;;12.68;;
39502;SDS011;26970;49.900;10.774;2022-09-12T05:04:34;320.27;;;14.43;;
39502;SDS011;26970;49.900;10.774;2022-09-12T05:07:00;429.40;;;18.60;;
39502;SDS011;26970;49.900;10.774;2022-09-12T05:09:25;277.42;;;13.32;;
39502;SDS011;26970;49.900;10.774;2022-09-12T05:11:51;124.80;;;10.57;;
39502;SDS011;26970;49.900;10.774;2022-09-12T05:14:17;33.75;;;9.70;;
39502;SDS011;26970;49.900;10.774;2022-09-12T05:16:42;282.35;;;12.38;;
39502;SDS011;26970;49.900;10.774;2022-09-12T05:19:09;337.90;;;14.75;;
39502;SDS011;26970;49.900;10.774;2022-09-12T05:21:36;365.80;;;14.95;;
39502;SDS011;26970;49.900;10.774;2022-09-12T05:24:01;332.63;;;16.75;;
39502;SDS011;26970;49.900;10.774;2022-09-12T05:26:27;166.23;;;12.00;;
39502;SDS011;26970;49.900;10.774;2022-09-12T05:28:53;90.95;;;11.52;;
39502;SDS011;26970;49.900;10.774;2022-09-12T05:31:20;281.67;;;12.85;;
39502;SDS011;26970;49.900;10.774;2022-09-12T05:33:48;249.15;;;12.30;;
39502;SDS011;26970;49.900;10.774;2022-09-12T05:36:18;418.20;;;17.70;;
39502;SDS011;26970;49.900;10.774;2022-09-12T05:38:51;305.92;;;15.65;;
39502;SDS011;26970;49.900;10.774;2022-09-12T05:41:18;202.85;;;12.57;;
39502;SDS011;26970;49.900;10.774;2022-09-12T05:43:45;336.65;;;15.75;;
39502;SDS011;26970;49.900;10.774;2022-09-12T05:46:15;226.48;;;12.15;;
39502;SDS011;26970;49.900;10.774;2022-09-12T05:48:43;297.27;;;16.05;;
39502;SDS011;26970;49.900;10.774;2022-09-12T05:51:20;68.90;;;11.45;;
39502;SDS011;26970;49.900;10.774;2022-09-12T05:53:54;154.95;;;12.57;;
39502;SDS011;26970;49.900;10.774;2022-09-12T05:56:22;306.55;;;14.93;;
39502;SDS011;26970;49.900;10.774;2022-09-12T05:59:00;331.08;;;15.93;;
39502;SDS011;26970;49.900;10.774;2022-09-12T06:01:28;273.40;;;16.17;;
39502;SDS011;26970;49.900;10.774;2022-09-12T06:03:55;137.05;;;13.43;;
39502;SDS011;26970;49.900;10.774;2022-09-12T06:06:24;172.63;;;12.23;;
39502;SDS011;26970;49.900;10.774;2022-09-12T06:08:52;91.97;;;11.68;;
39502;SDS011;26970;49.900;10.774;2022-09-12T06:11:21;95.32;;;11.80;;
39502;SDS011;26970;49.900;10.774;2022-09-12T06:13:50;62.95;;;11.23;;
39502;SDS011;26970;49.900;10.774;2022-09-12T06:16:20;415.23;;;19.23;;
39502;SDS011;26970;49.900;10.774;2022-09-12T06:18:48;216.98;;;9.73;;
39502;SDS011;26970;49.900;10.774;2022-09-12T06:21:18;209.07;;;12.93;;
39502;SDS011;26970;49.900;10.774;2022-09-12T06:23:44;223.23;;;14.13;;
39502;SDS011;26970;49.900;10.774;2022-09-12T06:26:11;130.27;;;11.15;;
39502;SDS011;26970;49.900;10.774;2022-09-12T06:28:38;123.93;;;11.18;;
39502;SDS011;26970;49.900;10.774;2022-09-12T06:31:07;64.85;;;10.73;;
39502;SDS011;26970;49.900;10.774;2022-09-12T06:33:38;136.32;;;12.13;;
39502;SDS011;26970;49.900;10.774;2022-09-12T06:36:12;86.65;;;10.77;;
39502;SDS011;26970;49.900;10.774;2022-09-12T06:38:40;133.57;;;11.43;;
39502;SDS011;26970;49.900;10.774;2022-09-12T06:41:10;223.48;;;12.45;;
39502;SDS011;26970;49.900;10.774;2022-09-12T06:43:36;156.10;;;11.88;;
39502;SDS011;26970;49.900;10.774;2022-09-12T06:46:03;109.80;;;10.70;;
39502;SDS011;26970;49.900;10.774;2022-09-12T06:48:29;53.00;;;11.52;;
39502;SDS011;26970;49.900;10.774;2022-09-12T06:50:55;69.35;;;11.30;;
39502;SDS011;26970;49.900;10.774;2022-09-12T06:53:25;102.43;;;11.77;;
39502;SDS011;26970;49.900;10.774;2022-09-12T06:55:59;30.95;;;9.80;;
39502;SDS011;26970;49.900;10.774;2022-09-12T06:58:27;55.92;;;9.82;;
39502;SDS011;26970;49.900;10.774;2022-09-12T07:01:00;53.38;;;10.80;;
39502;SDS011;26970;49.900;10.774;2022-09-12T07:03:27;84.65;;;11.52;;
39502;SDS011;26970;49.900;10.774;2022-09-12T07:05:53;112.72;;;11.05;;
39502;SDS011;26970;49.900;10.774;2022-09-12T07:08:18;141.15;;;13.98;;
39502;SDS011;26970;49.900;10.774;2022-09-12T07:10:44;94.60;;;12.43;;
39502;SDS011;26970;49.900;10.774;2022-09-12T07:13:09;75.75;;;11.13;;
39502;SDS011;26970;49.900;10.774;2022-09-12T07:15:35;97.18;;;11.75;;
39502;SDS011;26970;49.900;10.774;2022-09-12T07:18:07;145.50;;;12.65;;
39502;SDS011;26970;49.900;10.774;2022-09-12T07:20:34;181.60;;;13.98;;
39502;SDS011;26970;49.900;10.774;2022-09-12T07:25:37;41.17;;;12.07;;
39502;SDS011;26970;49.900;10.774;2022-09-12T07:28:02;267.75;;;15.68;;
39502;SDS011;26970;49.900;10.774;2022-09-12T07:30:28;191.63;;;14.38;;
39502;SDS011;26970;49.900;10.774;2022-09-12T07:32:53;125.97;;;12.75;;
39502;SDS011;26970;49.900;10.774;2022-09-12T07:35:19;150.05;;;14.10;;
39502;SDS011;26970;49.900;10.774;2022-09-12T07:37:45;196.50;;;14.70;;
39502;SDS011;26970;49.900;10.774;2022-09-12T07:40:11;126.70;;;14.85;;
39502;SDS011;26970;49.900;10.774;2022-09-12T07:42:36;133.85;;;14.98;;
39502;SDS011;26970;49.900;10.774;2022-09-12T07:45:02;184.35;;;14.80;;
39502;SDS011;26970;49.900;10.774;2022-09-12T07:47:28;151.82;;;15.25;;
39502;SDS011;26970;49.900;10.774;2022-09-12T07:49:53;105.25;;;15.05;;
39502;SDS011;26970;49.900;10.774;2022-09-12T07:52:19;180.98;;;17.60;;
39502;SDS011;26970;49.900;10.774;2022-09-12T07:54:45;83.50;;;14.40;;
39502;SDS011;26970;49.900;10.774;2022-09-12T07:57:10;180.43;;;16.20;;
39502;SDS011;26970;49.900;10.774;2022-09-12T07:59:36;27.45;;;15.38;;
39502;SDS011;26970;49.900;10.774;2022-09-12T08:02:09;25.98;;;14.88;;
39502;SDS011;26970;49.900;10.774;2022-09-12T08:04:37;75.43;;;17.15;;
39502;SDS011;26970;49.900;10.774;2022-09-12T08:07:02;42.95;;;16.48;;
39502;SDS011;26970;49.900;10.774;2022-09-12T08:09:28;25.02;;;15.85;;
39502;SDS011;26970;49.900;10.774;2022-09-12T08:11:53;48.40;;;16.33;;
39502;SDS011;26970;49.900;10.774;2022-09-12T08:14:19;44.47;;;14.45;;
39502;SDS011;26970;49.900;10.774;2022-09-12T08:16:45;33.78;;;14.77;;
39502;SDS011;26970;49.900;10.774;2022-09-12T08:19:12;52.03;;;13.95;;
39502;SDS011;26970;49.900;10.774;2022-09-12T08:21:37;29.40;;;15.10;;
39502;SDS011;26970;49.900;10.774;2022-09-12T08:24:03;24.38;;;13.50;;
39502;SDS011;26970;49.900;10.774;2022-09-12T08:26:30;35.92;;;13.65;;
39502;SDS011;26970;49.900;10.774;2022-09-12T08:28:57;30.80;;;12.65;;
39502;SDS011;26970;49.900;10.774;2022-09-12T08:31:24;20.85;;;14.13;;
39502;SDS011;26970;49.900;10.774;2022-09-12T08:33:51;13.60;;;10.68;;
39502;SDS011;26970;49.900;10.774;2022-09-12T08:36:23;18.23;;;14.13;;
39502;SDS011;26970;49.900;10.774;2022-09-12T08:38:52;27.50;;;13.40;;
39502;SDS011;26970;49.900;10.774;2022-09-12T08:41:30;18.02;;;14.00;;
39502;SDS011;26970;49.900;10.774;2022-09-12T08:47:16;19.48;;;13.65;;
39502;SDS011;26970;49.900;10.774;2022-09-12T08:55:12;20.17;;;15.95;;
39502;SDS011;26970;49.900;10.774;2022-09-12T08:57:43;19.85;;;15.38;;
39502;SDS011;26970;49.900;10.774;2022-09-12T09:00:12;18.00;;;14.85;;
39502;SDS011;26970;49.900;10.774;2022-09-12T09:05:12;17.98;;;15.10;;
39502;SDS011;26970;49.900;10.774;2022-09-12T09:10:25;17.33;;;15.00;;
39502;SDS011;26970;49.900;10.774;2022-09-12T09:18:05;22.92;;;18.15;;
39502;SDS011;26970;49.900;10.774;2022-09-12T09:20:42;24.45;;;17.70;;
39502;SDS011;26970;49.900;10.774;2022-09-12T09:23:22;21.23;;;17.08;;
39502;SDS011;26970;49.900;10.774;2022-09-12T09:25:59;21.58;;;17.52;;
39502;SDS011;26970;49.900;10.774;2022-09-12T09:28:41;22.13;;;18.27;;
39502;SDS011;26970;49.900;10.774;2022-09-12T09:31:18;19.80;;;16.40;;
39502;SDS011;26970;49.900;10.774;2022-09-12T09:33:49;19.65;;;16.70;;
39502;SDS011;26970;49.900;10.774;2022-09-12T09:36:20;21.05;;;17.95;;
39502;SDS011;26970;49.900;10.774;2022-09-12T09:39:00;19.48;;;16.98;;
39502;SDS011;26970;49.900;10.774;2022-09-12T09:44:32;19.05;;;16.70;;
39502;SDS011;26970;49.900;10.774;2022-09-12T09:46:58;21.50;;;18.20;;
39502;SDS011;26970;49.900;10.774;2022-09-12T09:49:28;19.98;;;15.95;;
39502;SDS011;26970;49.900;10.774;2022-09-12T09:51:57;19.80;;;17.13;;
39502;SDS011;26970;49.900;10.774;2022-09-12T09:54:30;20.75;;;18.50;;
39502;SDS011;26970;49.900;10.774;2022-09-12T10:08:23;18.00;;;15.55;;
39502;SDS011;26970;49.900;10.774;2022-09-12T10:13:31;19.35;;;14.68;;
39502;SDS011;26970;49.900;10.774;2022-09-12T10:15:59;16.65;;;13.82;;
39502;SDS011;26970;49.900;10.774;2022-09-12T10:18:33;16.45;;;14.13;;
39502;SDS011;26970;49.900;10.774;2022-09-12T10:21:05;16.92;;;14.48;;
39502;SDS011;26970;49.900;10.774;2022-09-12T10:23:43;17.30;;;13.65;;
39502;SDS011;26970;49.900;10.774;2022-09-12T10:26:11;18.25;;;13.75;;
39502;SDS011;26970;49.900;10.774;2022-09-12T10:28:49;15.27;;;13.65;;
39502;SDS011;26970;49.900;10.774;2022-09-12T10:31:25;14.65;;;12.32;;
39502;SDS011;26970;49.900;10.774;2022-09-12T10:33:56;14.68;;;12.55;;
39502;SDS011;26970;49.900;10.774;2022-09-12T10:36:24;13.18;;;11.63;;
39502;SDS011;26970;49.900;10.774;2022-09-12T10:38:54;14.50;;;12.70;;
39502;SDS011;26970;49.900;10.774;2022-09-12T10:41:25;14.07;;;11.05;;
39502;SDS011;26970;49.900;10.774;2022-09-12T10:44:22;13.07;;;11.68;;
39502;SDS011;26970;49.900;10.774;2022-09-12T10:46:55;17.80;;;10.65;;
39502;SDS011;26970;49.900;10.774;2022-09-12T10:49:26;11.82;;;10.00;;
39502;SDS011;26970;49.900;10.774;2022-09-12T10:51:53;12.07;;;9.47;;
39502;SDS011;26970;49.900;10.774;2022-09-12T10:54:21;10.30;;;8.60;;
39502;SDS011;26970;49.900;10.774;2022-09-12T10:57:16;11.48;;;9.30;;
39502;SDS011;26970;49.900;10.774;2022-09-12T11:02:51;10.77;;;8.80;;
39502;SDS011;26970;49.900;10.774;2022-09-12T11:05:31;11.50;;;7.93;;
39502;SDS011;26970;49.900;10.774;2022-09-12T11:10:54;9.43;;;7.20;;
39502;SDS011;26970;49.900;10.774;2022-09-12T11:21:41;11.02;;;7.15;;
39502;SDS011;26970;49.900;10.774;2022-09-12T11:29:53;9.05;;;7.90;;
39502;SDS011;26970;49.900;10.774;2022-09-12T11:35:32;8.77;;;5.90;;
39502;SDS011;26970;49.900;10.774;2022-09-12T11:38:10;6.78;;;5.30;;
39502;SDS011;26970;49.900;10.774;2022-09-12T11:43:15;7.78;;;5.47;;
39502;SDS011;26970;49.900;10.774;2022-09-12T11:45:53;5.88;;;4.90;;
39502;SDS011;26970;49.900;10.774;2022-09-12T11:48:39;7.10;;;4.35;;
39502;SDS011;26970;49.900;10.774;2022-09-12T11:51:19;5.88;;;4.68;;
39502;SDS011;26970;49.900;10.774;2022-09-12T11:54:12;6.20;;;4.30;;
39502;SDS011;26970;49.900;10.774;2022-09-12T11:56:46;6.22;;;4.53;;
39502;SDS011;26970;49.900;10.774;2022-09-12T11:59:31;5.05;;;3.80;;
39502;SDS011;26970;49.900;10.774;2022-09-12T12:02:07;4.65;;;3.47;;
39502;SDS011;26970;49.900;10.774;2022-09-12T12:04:42;4.78;;;3.50;;
39502;SDS011;26970;49.900;10.774;2022-09-12T12:07:16;6.10;;;4.80;;
39502;SDS011;26970;49.900;10.774;2022-09-12T12:09:48;5.22;;;4.13;;
39502;SDS011;26970;49.900;10.774;2022-09-12T12:12:20;5.45;;;4.30;;
39502;SDS011;26970;49.900;10.774;2022-09-12T12:14:49;6.20;;;4.25;;
39502;SDS011;26970;49.900;10.774;2022-09-12T12:17:21;5.95;;;4.53;;
39502;SDS011;26970;49.900;10.774;2022-09-12T12:19:55;5.88;;;4.45;;
39502;SDS011;26970;49.900;10.774;2022-09-12T12:22:23;5.15;;;4.28;;
39502;SDS011;26970;49.900;10.774;2022-09-12T12:27:46;7.45;;;4.57;;
39502;SDS011;26970;49.900;10.774;2022-09-12T12:32:58;5.45;;;4.47;;
39502;SDS011;26970;49.900;10.774;2022-09-12T12:35:43;6.82;;;4.47;;
39502;SDS011;26970;49.900;10.774;2022-09-12T12:38:27;8.27;;;4.50;;
39502;SDS011;26970;49.900;10.774;2022-09-12T12:43:41;6.95;;;4.65;;
39502;SDS011;26970;49.900;10.774;2022-09-12T12:46:12;6.28;;;4.40;;
39502;SDS011;26970;49.900;10.774;2022-09-12T12:48:43;7.85;;;4.68;;
39502;SDS011;26970;49.900;10.774;2022-09-12T12:53:51;5.22;;;3.90;;
39502;SDS011;26970;49.900;10.774;2022-09-12T12:56:25;4.63;;;3.17;;
39502;SDS011;26970;49.900;10.774;2022-09-12T12:59:03;6.00;;;3.90;;
39502;SDS011;26970;49.900;10.774;2022-09-12T13:04:16;6.22;;;3.80;;
39502;SDS011;26970;49.900;10.774;2022-09-12T13:06:45;5.28;;;3.80;;
39502;SDS011;26970;49.900;10.774;2022-09-12T13:09:24;4.63;;;3.30;;
39502;SDS011;26970;49.900;10.774;2022-09-12T13:12:00;5.28;;;3.35;;
39502;SDS011;26970;49.900;10.774;2022-09-12T13:22:13;5.45;;;2.92;;
39502;SDS011;26970;49.900;10.774;2022-09-12T13:24:45;7.00;;;3.10;;
39502;SDS011;26970;49.900;10.774;2022-09-12T13:27:22;4.60;;;3.28;;
39502;SDS011;26970;49.900;10.774;2022-09-12T13:29:49;5.03;;;3.30;;
39502;SDS011;26970;49.900;10.774;2022-09-12T13:35:04;6.43;;;3.20;;
39502;SDS011;26970;49.900;10.774;2022-09-12T13:40:29;5.07;;;3.28;;
39502;SDS011;26970;49.900;10.774;2022-09-12T13:43:14;4.18;;;3.15;;
39502;SDS011;26970;49.900;10.774;2022-09-12T13:45:42;5.35;;;3.25;;
39502;SDS011;26970;49.900;10.774;2022-09-12T13:48:12;4.57;;;3.10;;
39502;SDS011;26970;49.900;10.774;2022-09-12T13:50:51;5.50;;;2.88;;
39502;SDS011;26970;49.900;10.774;2022-09-12T13:53:19;3.45;;;2.75;;
39502;SDS011;26970;49.900;10.774;2022-09-12T13:55:50;4.50;;;2.97;;
39502;SDS011;26970;49.900;10.774;2022-09-12T14:00:58;4.35;;;3.17;;
39502;SDS011;26970;49.900;10.774;2022-09-12T14:06:33;5.07;;;3.60;;
39502;SDS011;26970;49.900;10.774;2022-09-12T14:09:28;4.85;;;3.33;;
39502;SDS011;26970;49.900;10.774;2022-09-12T14:11:56;5.32;;;3.80;;
39502;SDS011;26970;49.900;10.774;2022-09-12T14:14:26;5.65;;;3.75;;
39502;SDS011;26970;49.900;10.774;2022-09-12T14:19:53;6.82;;;4.03;;
39502;SDS011;26970;49.900;10.774;2022-09-12T14:22:23;5.40;;;3.70;;
39502;SDS011;26970;49.900;10.774;2022-09-12T14:24:53;7.07;;;3.88;;
39502;SDS011;26970;49.900;10.774;2022-09-12T14:27:24;7.15;;;3.90;;
39502;SDS011;26970;49.900;10.774;2022-09-12T14:32:31;6.18;;;3.70;;
39502;SDS011;26970;49.900;10.774;2022-09-12T14:35:16;7.40;;;4.00;;
39502;SDS011;26970;49.900;10.774;2022-09-12T14:37:44;5.90;;;3.42;;
39502;SDS011;26970;49.900;10.774;2022-09-12T14:40:20;6.47;;;3.65;;
39502;SDS011;26970;49.900;10.774;2022-09-12T14:42:47;5.85;;;3.80;;
39502;SDS011;26970;49.900;10.774;2022-09-12T14:45:22;5.22;;;3.40;;
39502;SDS011;26970;49.900;10.774;2022-09-12T14:47:49;4.38;;;3.50;;
39502;SDS011;26970;49.900;10.774;2022-09-12T14:50:24;4.93;;;3.92;;
39502;SDS011;26970;49.900;10.774;2022-09-12T14:53:01;6.78;;;4.00;;
39502;SDS011;26970;49.900;10.774;2022-09-12T14:55:32;5.80;;;4.00;;
39502;SDS011;26970;49.900;10.774;2022-09-12T14:58:07;5.65;;;4.10;;
39502;SDS011;26970;49.900;10.774;2022-09-12T15:00:50;4.72;;;3.60;;
39502;SDS011;26970;49.900;10.774;2022-09-12T15:03:26;5.13;;;3.60;;
39502;SDS011;26970;49.900;10.774;2022-09-12T15:05:55;5.88;;;3.90;;
39502;SDS011;26970;49.900;10.774;2022-09-12T15:08:21;4.65;;;3.35;;
39502;SDS011;26970;49.900;10.774;2022-09-12T15:10:48;6.13;;;3.53;;
39502;SDS011;26970;49.900;10.774;2022-09-12T15:13:17;5.00;;;3.25;;
39502;SDS011;26970;49.900;10.774;2022-09-12T15:15:45;7.72;;;3.65;;
39502;SDS011;26970;49.900;10.774;2022-09-12T15:18:22;6.15;;;3.55;;
39502;SDS011;26970;49.900;10.774;2022-09-12T15:20:51;7.93;;;3.83;;
39502;SDS011;26970;49.900;10.774;2022-09-12T15:26:15;5.78;;;3.45;;
39502;SDS011;26970;49.900;10.774;2022-09-12T15:28:54;7.10;;;3.72;;
39502;SDS011;26970;49.900;10.774;2022-09-12T15:31:26;4.72;;;3.20;;
39502;SDS011;26970;49.900;10.774;2022-09-12T15:33:54;9.10;;;3.70;;
39502;SDS011;26970;49.900;10.774;2022-09-12T15:36:21;5.18;;;3.30;;
39502;SDS011;26970;49.900;10.774;2022-09-12T15:38:48;5.70;;;3.70;;
39502;SDS011;26970;49.900;10.774;2022-09-12T15:41:15;8.80;;;4.43;;
39502;SDS011;26970;49.900;10.774;2022-09-12T15:43:43;4.38;;;3.22;;
39502;SDS011;26970;49.900;10.774;2022-09-12T15:46:10;6.80;;;3.75;;
39502;SDS011;26970;49.900;10.774;2022-09-12T15:48:38;6.00;;;3.88;;
39502;SDS011;26970;49.900;10.774;2022-09-12T15:51:04;4.40;;;3.38;;
39502;SDS011;26970;49.900;10.774;2022-09-12T15:53:30;4.85;;;3.75;;
39502;SDS011;26970;49.900;10.774;2022-09-12T15:55:56;5.25;;;3.60;;
39502;SDS011;26970;49.900;10.774;2022-09-12T15:58:21;5.60;;;3.83;;
39502;SDS011;26970;49.900;10.774;2022-09-12T16:00:47;7.63;;;4.10;;
39502;SDS011;26970;49.900;10.774;2022-09-12T16:03:23;6.30;;;3.85;;
39502;SDS011;26970;49.900;10.774;2022-09-12T16:05:55;5.05;;;3.90;;
39502;SDS011;26970;49.900;10.774;2022-09-12T16:08:22;5.87;;;3.60;;
39502;SDS011;26970;49.900;10.774;2022-09-12T16:10:48;5.35;;;3.83;;
39502;SDS011;26970;49.900;10.774;2022-09-12T16:13:18;5.60;;;3.90;;
39502;SDS011;26970;49.900;10.774;2022-09-12T16:15:43;5.28;;;4.07;;
39502;SDS011;26970;49.900;10.774;2022-09-12T16:18:09;6.13;;;3.97;;
39502;SDS011;26970;49.900;10.774;2022-09-12T16:20:37;7.43;;;4.20;;
39502;SDS011;26970;49.900;10.774;2022-09-12T16:23:06;5.07;;;3.78;;
39502;SDS011;26970;49.900;10.774;2022-09-12T16:25:34;5.03;;;3.85;;
39502;SDS011;26970;49.900;10.774;2022-09-12T16:28:01;5.40;;;3.83;;
39502;SDS011;26970;49.900;10.774;2022-09-12T16:30:29;4.93;;;3.72;;
39502;SDS011;26970;49.900;10.774;2022-09-12T16:32:55;5.70;;;4.00;;
39502;SDS011;26970;49.900;10.774;2022-09-12T16:35:21;6.22;;;4.07;;
39502;SDS011;26970;49.900;10.774;2022-09-12T16:37:46;7.72;;;4.45;;
39502;SDS011;26970;49.900;10.774;2022-09-12T16:40:12;5.50;;;4.18;;
39502;SDS011;26970;49.900;10.774;2022-09-12T16:42:39;4.85;;;4.00;;
39502;SDS011;26970;49.900;10.774;2022-09-12T16:45:04;5.43;;;3.97;;
39502;SDS011;26970;49.900;10.774;2022-09-12T16:47:31;5.95;;;4.60;;
39502;SDS011;26970;49.900;10.774;2022-09-12T16:49:56;6.57;;;4.00;;
39502;SDS011;26970;49.900;10.774;2022-09-12T16:52:23;5.72;;;3.80;;
39502;SDS011;26970;49.900;10.774;2022-09-12T16:54:48;6.55;;;4.15;;
39502;SDS011;26970;49.900;10.774;2022-09-12T16:57:14;4.72;;;3.83;;
39502;SDS011;26970;49.900;10.774;2022-09-12T16:59:39;6.38;;;4.18;;
39502;SDS011;26970;49.900;10.774;2022-09-12T17:02:05;6.32;;;4.18;;
39502;SDS011;26970;49.900;10.774;2022-09-12T17:04:31;6.25;;;4.18;;
39502;SDS011;26970;49.900;10.774;2022-09-12T17:06:57;5.28;;;4.40;;
39502;SDS011;26970;49.900;10.774;2022-09-12T17:09:23;7.45;;;3.85;;